Flight Track Log - Related Links

Times and Time Zones

All times are in EDT time to prevent confusion due to time zone crossing. See the N441S flight status page for this flight to view local times or setup timezone preferences in your user account.

Time Position Orientation Groundspeed Altitude Reporting Facility
EDT Latitude Longitude Course Direction KTS MPH feet Rate Location/Type
Thu 11:13:00 AM 45.8987 -110.7002 72° East  Level FlightAware Approximate
Thu 11:13:07 AM 45.8178 -110.9389 70° East 165 190 12,400  Level Salt Lake Center
Thu 11:14:00 AM 45.9166 -110.6228 72° East  Level FlightAware Approximate
Thu 11:14:10 AM 45.8344 -110.8864 65° Northeast 170 196 14,100  Level Salt Lake Center
Thu 11:15:00 AM 45.9346 -110.5454 69° East  Level FlightAware Approximate
Thu 11:15:12 AM 45.8597 -110.7908 69° East 206 237 15,000  Level Salt Lake Center
Thu 11:16:00 AM 45.9554 -110.4694 69° East  Level FlightAware Approximate
Thu 11:16:14 AM 45.8889 -110.6936 67° East 253 291 15,000  Level Salt Lake Center
Thu 11:17:00 AM 45.9761 -110.3934 69° East  Level FlightAware Approximate
Thu 11:17:16 AM 45.9181 -110.5928 67° East 270 311 15,000  Level Salt Lake Center
Thu 11:18:00 AM 45.9958 -110.3168 70° East  Level FlightAware Approximate
Thu 11:18:18 AM 45.9472 -110.4886 68° East 279 321 15,000  Level Salt Lake Center
Thu 11:19:20 AM 45.9764 -110.3844 68° East 281 323 15,000  Level Salt Lake Center
Thu 11:20:22 AM 46.0064 -110.2789 68° East 283 326 15,000  Level Salt Lake Center
Thu 11:21:24 AM 46.0428 -110.1511 68° East 287 330 15,000  Level Salt Lake Center
Thu 11:22:26 AM 46.0719 -110.0433 69° East 289 333 15,000  Level Salt Lake Center
Thu 11:23:28 AM 46.1008 -109.9378 68° East 286 329 15,000  Level Salt Lake Center
Thu 11:24:30 AM 46.1314 -109.8325 67° East 286 329 15,000  Level Salt Lake Center
Thu 11:25:32 AM 46.1633 -109.7125 69° East 286 329 15,000  Level Salt Lake Center
Thu 11:26:34 AM 46.1906 -109.6117 69° East 274 315 15,000  Level Salt Lake Center
Thu 11:27:36 AM 46.2206 -109.5039 68° East 271 312 15,000  Level Salt Lake Center
Thu 11:28:38 AM 46.2469 -109.4036 69° East 272 313 15,000 -242 Level Salt Lake Center
Thu 11:29:40 AM 46.2764 -109.2956 68° East 270 311 14,500 -968 Descending Salt Lake Center
Thu 11:30:42 AM 46.3044 -109.1906 69° East 281 323 13,000 -1,645 Descending Salt Lake Center
Thu 11:31:44 AM 46.3358 -109.0742 69° East 286 329 11,100 -1,694 Descending Salt Lake Center
Thu 11:32:46 AM 46.3631 -108.9717 69° East 277 319 9,500 -1,645 Descending Salt Lake Center
Thu 11:33:48 AM 46.3911 -108.8636 69° East 272 313 7,700 -1,065 Descending Salt Lake Center
Thu 11:34:50 AM 46.4144 -108.7781 68° East 255 293 7,300 -387 Descending Salt Lake Center
Thu 11:36:00 AM 46.4270 -108.6822 79° East  Level FlightAware Approximate
Thu 11:43:00 AM 46.4667 -108.5333 64° Northeast  Level FlightAware Approximate
Thu 11:44:00 AM 46.4750 -108.5434 64° Northeast  Level Estimated
Thu 11:45:00 AM 46.4750 -108.5434 64° Northeast  Level Estimated
Thu 11:46:00 AM 46.4750 -108.5434 64° Northeast  Level Estimated

Login

Don't have an account? Register now (free) for customized features, flight alerts, and more!